CheckWX is a tool to help pilots better visualize weather data.  It is not intended as a substitute for an official pre-flight weather briefing.

10:08:17 UTC

KPUW METAR
Pullman / Moscow Regional Airport
Pullman/Moscow, Washington, USA
Current

15 mins ago

KPUW 200953Z AUTO 10008KT 2 1/2SM -SN BR OVC026 M04/M05 A2971 RMK AO2 SLP090 P0001 T10391050
Observed
Feb-20 @ 09:53 UTC
Wind
  • 100° at 8 KTS
Visibility
4,023 meters
Flight Rules
IFR
Conditions
Light Snow, Mist
Cloud Levels
  • Overcast at 2,600' AGL
Temperature
-4°C / 25°F
Dewpoint
-5°C / 23°F
Humidity
93%
Altimeter
29.71" Hg
Pressure
1009 hPa
Current Rain
0.01"
Previous

1 hour ago

KPUW 200853Z AUTO 10008KT 1 1/4SM -SN BR BKN015 OVC027 M04/M06 A2973 RMK AO2 SLP096 P0002 60003 T10391056 56014
Observed
Feb-20 @ 08:53 UTC
Wind
  • 100° at 8 KTS
Visibility
2,012 meters
Flight Rules
IFR
Conditions
Light Snow, Mist
Cloud Levels
  • Broken at 1,500' AGL
  • Overcast at 2,700' AGL
Temperature
-4°C / 25°F
Dewpoint
-6°C / 21°F
Humidity
86%
Altimeter
29.73" Hg
Pressure
1009.6 hPa
Current Rain
0.02"
Previous

2 hours ago

KPUW 200753Z AUTO 09009KT 1 1/4SM -SN BR OVC016 M04/M06 A2975 RMK AO2 SLP102 P0000 T10391056 410391106
Observed
Feb-20 @ 07:53 UTC
Wind
  • 090° at 9 KTS
Visibility
2,012 meters
Flight Rules
IFR
Conditions
Light Snow, Mist
Cloud Levels
  • Overcast at 1,600' AGL
Temperature
-4°C / 25°F
Dewpoint
-6°C / 21°F
Humidity
86%
Altimeter
29.75" Hg
Pressure
1010.2 hPa
Current Rain
0.01"